Valley International Airport

Airport
ICAO code: 
KHRL
Summary
ICAO Region: 
NAM
Territory: 
Location: 
Harlington, Texas,
Elevation: 
36 ft
Coordinates: 
Aerial View: 
26° 13' 26.058" N, 97° 39' 43.261" W
Airport LOS: 
Parallel Runway Operation
Metar
Observation
KHRL 021613Z 20003KT 10SM BKN008 BKN014 BKN023 24/22 A3018 RMK AO2 T02390217
Station
Harlingen, Rio Grande Valley International Airport
Date/Time
2021-12-02 16:13:00
Wind direction
200°
Wind speed
03 kts
Lowest cloud amount
broken clouds
Temperature
23.9°C
Dew point
21.7°C
Humidity
87%
Weather condition
n/a

Description

Valley International Airport is a public use airport located 6 km northeast of the central business district of Harlingen, a city in Cameron County, Texas.

Climatology

Humid “subtropical” climate (Köppen climate classification Cfa) - characterized by hot, humid summers and mild winters. Most rainfall occurs during summer and is often associated with thunderstorms and occasional tropical storms (hurricanes).

Runways

Designator Length Width Surface Rops
17L/35R 1813 46 ASP Yes/Yes
13/31 2212 46 ASP Yes/Yes
17R/35L 2530 46 ASP Yes/Yes
Airport map: 
Aerial View: 

SKYbrary Partners:

Safety knowledge contributed by: